首页
METAR-TAF:

METAR-TAF

机场 :

Truth or Consequences Municipal Airport

Truth or Consequences, 新墨西哥州, 美国

纬度: 33-14-12N, 经度: 107-16-05W, 海拔: 1478米

当前天气观测

该预报发布于59分钟前的03:53 UTC
风速7节,风向西转西南
温度 23°C
湿度 8%
气压 1013 hPa
能見度: 16.1公里
天空无云

METAR: KTCS 250353Z AUTO 24007KT 10SM CLR 23/M13 A2992 RMK AO2 SLP046 T02331128 $

时间: 22:52 (04:52 UTC)

预报

该预报发布于5小时和27分钟前的23:25 UTC
预报有效从25日的 00点(UTC)到 25日的 24点(UTC)
风速18节,风向西转西南,有时为25节阵风
能見度: 10公里
少量云层高于25000英尺
从 25日的 0300点(UTC)
风速6节,风向西
能見度: 10公里
天空无云
从 25日的 1600点(UTC)
风速24节,风向西南,有时为34节阵风
能見度: 10公里
天空无云

TAF: KTCS 242325Z 2500/2524 24018G25KT P6SM FEW250 FM250300 26006KT P6SM SKC FM251600 22024G34KT P6SM SKC

超过4000个机场的气象观测和天气预报(METAR&TAF报告)。

可查询的气象台以黄色和红色小点在地图上表示。

将鼠标移到小点上方,可查看气象台名称。

然后点击查看天气观测和预报。

如需切换地图:点击带黑十字的绿色按钮放大地图;点击带横线的绿色按钮缩小地图;或者点击绿色箭头查看邻近地区的地图。


METAR-TAF: